sensor_id;sensor_type;location;lat;lon;timestamp;P1;durP1;ratioP1;P2;durP2;ratioP2
13560;SDS011;6852;51.686;5.314;2023-01-08T00:02:26;2.67;;;1.80;;
13560;SDS011;6852;51.686;5.314;2023-01-08T00:04:52;2.83;;;1.90;;
13560;SDS011;6852;51.686;5.314;2023-01-08T00:07:19;2.03;;;1.50;;
13560;SDS011;6852;51.686;5.314;2023-01-08T00:09:46;3.90;;;1.90;;
13560;SDS011;6852;51.686;5.314;2023-01-08T00:12:15;5.70;;;1.93;;
13560;SDS011;6852;51.686;5.314;2023-01-08T00:14:42;5.43;;;2.13;;
13560;SDS011;6852;51.686;5.314;2023-01-08T00:17:09;3.17;;;1.63;;
13560;SDS011;6852;51.686;5.314;2023-01-08T00:19:36;2.87;;;2.20;;
13560;SDS011;6852;51.686;5.314;2023-01-08T00:22:03;4.97;;;2.10;;
13560;SDS011;6852;51.686;5.314;2023-01-08T00:24:29;3.73;;;2.37;;
13560;SDS011;6852;51.686;5.314;2023-01-08T00:26:56;2.17;;;1.93;;
13560;SDS011;6852;51.686;5.314;2023-01-08T00:29:23;2.60;;;1.90;;
13560;SDS011;6852;51.686;5.314;2023-01-08T00:31:50;3.77;;;2.27;;
13560;SDS011;6852;51.686;5.314;2023-01-08T00:34:17;4.10;;;1.90;;
13560;SDS011;6852;51.686;5.314;2023-01-08T00:36:44;4.57;;;2.00;;
13560;SDS011;6852;51.686;5.314;2023-01-08T00:39:11;3.83;;;1.70;;
13560;SDS011;6852;51.686;5.314;2023-01-08T00:41:37;4.13;;;2.60;;
13560;SDS011;6852;51.686;5.314;2023-01-08T00:44:04;5.67;;;2.20;;
13560;SDS011;6852;51.686;5.314;2023-01-08T00:46:31;6.23;;;2.20;;
13560;SDS011;6852;51.686;5.314;2023-01-08T00:48:58;2.90;;;1.80;;
13560;SDS011;6852;51.686;5.314;2023-01-08T00:51:24;5.50;;;2.17;;
13560;SDS011;6852;51.686;5.314;2023-01-08T00:53:52;4.07;;;2.17;;
13560;SDS011;6852;51.686;5.314;2023-01-08T00:56:18;7.23;;;2.43;;
13560;SDS011;6852;51.686;5.314;2023-01-08T00:58:45;2.77;;;2.20;;
13560;SDS011;6852;51.686;5.314;2023-01-08T01:01:12;3.97;;;2.00;;
13560;SDS011;6852;51.686;5.314;2023-01-08T01:03:40;3.57;;;1.80;;
13560;SDS011;6852;51.686;5.314;2023-01-08T01:06:08;4.80;;;1.83;;
13560;SDS011;6852;51.686;5.314;2023-01-08T01:08:36;2.23;;;1.70;;
13560;SDS011;6852;51.686;5.314;2023-01-08T01:11:06;3.73;;;2.00;;
13560;SDS011;6852;51.686;5.314;2023-01-08T01:13:34;4.07;;;2.10;;
13560;SDS011;6852;51.686;5.314;2023-01-08T01:16:01;2.67;;;1.80;;
13560;SDS011;6852;51.686;5.314;2023-01-08T01:18:28;4.57;;;2.07;;
13560;SDS011;6852;51.686;5.314;2023-01-08T01:20:56;6.73;;;2.30;;
13560;SDS011;6852;51.686;5.314;2023-01-08T01:23:22;6.43;;;1.93;;
13560;SDS011;6852;51.686;5.314;2023-01-08T01:25:49;3.57;;;1.80;;
13560;SDS011;6852;51.686;5.314;2023-01-08T01:28:16;3.20;;;1.83;;
13560;SDS011;6852;51.686;5.314;2023-01-08T01:30:43;4.13;;;2.07;;
13560;SDS011;6852;51.686;5.314;2023-01-08T01:33:10;3.00;;;1.80;;
13560;SDS011;6852;51.686;5.314;2023-01-08T01:35:37;5.07;;;2.37;;
13560;SDS011;6852;51.686;5.314;2023-01-08T01:38:03;3.53;;;2.27;;
13560;SDS011;6852;51.686;5.314;2023-01-08T01:40:30;4.13;;;2.13;;
13560;SDS011;6852;51.686;5.314;2023-01-08T01:42:57;6.33;;;2.60;;
13560;SDS011;6852;51.686;5.314;2023-01-08T01:45:25;4.90;;;2.10;;
13560;SDS011;6852;51.686;5.314;2023-01-08T01:47:57;5.53;;;2.03;;
13560;SDS011;6852;51.686;5.314;2023-01-08T01:50:41;3.80;;;2.10;;
13560;SDS011;6852;51.686;5.314;2023-01-08T01:55:48;6.00;;;2.13;;
13560;SDS011;6852;51.686;5.314;2023-01-08T01:58:21;4.20;;;2.33;;
13560;SDS011;6852;51.686;5.314;2023-01-08T02:00:51;3.43;;;2.07;;
13560;SDS011;6852;51.686;5.314;2023-01-08T02:03:25;3.63;;;2.30;;
13560;SDS011;6852;51.686;5.314;2023-01-08T02:11:45;5.17;;;2.00;;
13560;SDS011;6852;51.686;5.314;2023-01-08T02:14:41;2.10;;;1.20;;
13560;SDS011;6852;51.686;5.314;2023-01-08T02:28:30;2.40;;;0.77;;
13560;SDS011;6852;51.686;5.314;2023-01-08T02:31:01;4.27;;;0.80;;
13560;SDS011;6852;51.686;5.314;2023-01-08T02:33:29;5.93;;;0.80;;
13560;SDS011;6852;51.686;5.314;2023-01-08T02:42:06;0.80;;;0.40;;
13560;SDS011;6852;51.686;5.314;2023-01-08T02:47:24;2.10;;;0.70;;
13560;SDS011;6852;51.686;5.314;2023-01-08T02:49:59;1.60;;;0.50;;
13560;SDS011;6852;51.686;5.314;2023-01-08T02:52:44;2.10;;;0.40;;
13560;SDS011;6852;51.686;5.314;2023-01-08T02:55:17;6.83;;;1.13;;
13560;SDS011;6852;51.686;5.314;2023-01-08T02:57:47;5.93;;;1.07;;
13560;SDS011;6852;51.686;5.314;2023-01-08T03:00:14;1.10;;;0.43;;
13560;SDS011;6852;51.686;5.314;2023-01-08T03:02:41;2.37;;;0.60;;
13560;SDS011;6852;51.686;5.314;2023-01-08T03:05:12;1.97;;;0.50;;
13560;SDS011;6852;51.686;5.314;2023-01-08T03:07:45;2.83;;;0.60;;
13560;SDS011;6852;51.686;5.314;2023-01-08T03:10:12;2.10;;;0.43;;
13560;SDS011;6852;51.686;5.314;2023-01-08T03:13:22;6.43;;;0.90;;
13560;SDS011;6852;51.686;5.314;2023-01-08T03:15:34;3.03;;;0.77;;
13560;SDS011;6852;51.686;5.314;2023-01-08T03:18:10;1.43;;;0.50;;
13560;SDS011;6852;51.686;5.314;2023-01-08T03:20:40;1.27;;;0.40;;
13560;SDS011;6852;51.686;5.314;2023-01-08T03:23:09;2.80;;;0.70;;
13560;SDS011;6852;51.686;5.314;2023-01-08T03:25:39;0.93;;;0.50;;
13560;SDS011;6852;51.686;5.314;2023-01-08T03:28:10;1.93;;;0.60;;
13560;SDS011;6852;51.686;5.314;2023-01-08T03:30:48;1.87;;;0.70;;
13560;SDS011;6852;51.686;5.314;2023-01-08T03:33:17;3.53;;;0.80;;
13560;SDS011;6852;51.686;5.314;2023-01-08T03:35:47;3.07;;;0.63;;
13560;SDS011;6852;51.686;5.314;2023-01-08T03:38:24;5.00;;;0.50;;
13560;SDS011;6852;51.686;5.314;2023-01-08T03:41:02;2.07;;;0.50;;
13560;SDS011;6852;51.686;5.314;2023-01-08T03:43:35;0.53;;;0.30;;
13560;SDS011;6852;51.686;5.314;2023-01-08T03:46:03;3.47;;;0.60;;
13560;SDS011;6852;51.686;5.314;2023-01-08T03:48:33;4.10;;;0.53;;
13560;SDS011;6852;51.686;5.314;2023-01-08T03:51:01;2.37;;;0.67;;
13560;SDS011;6852;51.686;5.314;2023-01-08T03:53:28;4.07;;;0.40;;
13560;SDS011;6852;51.686;5.314;2023-01-08T03:55:55;1.60;;;0.60;;
13560;SDS011;6852;51.686;5.314;2023-01-08T03:58:23;3.07;;;0.50;;
13560;SDS011;6852;51.686;5.314;2023-01-08T04:00:50;4.57;;;1.10;;
13560;SDS011;6852;51.686;5.314;2023-01-08T04:03:16;3.23;;;0.80;;
13560;SDS011;6852;51.686;5.314;2023-01-08T04:05:43;2.60;;;0.80;;
13560;SDS011;6852;51.686;5.314;2023-01-08T04:08:10;2.93;;;0.67;;
13560;SDS011;6852;51.686;5.314;2023-01-08T04:10:37;3.37;;;0.77;;
13560;SDS011;6852;51.686;5.314;2023-01-08T04:13:04;2.13;;;0.60;;
13560;SDS011;6852;51.686;5.314;2023-01-08T04:15:31;3.93;;;1.00;;
13560;SDS011;6852;51.686;5.314;2023-01-08T04:17:58;1.97;;;0.67;;
13560;SDS011;6852;51.686;5.314;2023-01-08T04:20:25;2.50;;;0.80;;
13560;SDS011;6852;51.686;5.314;2023-01-08T04:22:52;5.03;;;0.80;;
13560;SDS011;6852;51.686;5.314;2023-01-08T04:25:19;6.10;;;1.10;;
13560;SDS011;6852;51.686;5.314;2023-01-08T04:27:45;2.27;;;0.90;;
13560;SDS011;6852;51.686;5.314;2023-01-08T04:30:12;1.87;;;0.80;;
13560;SDS011;6852;51.686;5.314;2023-01-08T04:32:39;1.57;;;0.60;;
13560;SDS011;6852;51.686;5.314;2023-01-08T04:35:06;2.93;;;0.80;;
13560;SDS011;6852;51.686;5.314;2023-01-08T04:37:33;2.27;;;0.70;;
13560;SDS011;6852;51.686;5.314;2023-01-08T04:40:00;1.33;;;0.77;;
13560;SDS011;6852;51.686;5.314;2023-01-08T04:42:26;3.33;;;1.10;;
13560;SDS011;6852;51.686;5.314;2023-01-08T04:44:56;2.90;;;0.93;;
13560;SDS011;6852;51.686;5.314;2023-01-08T04:47:23;6.93;;;1.00;;
13560;SDS011;6852;51.686;5.314;2023-01-08T04:49:49;3.17;;;0.67;;
13560;SDS011;6852;51.686;5.314;2023-01-08T04:52:16;2.77;;;1.07;;
13560;SDS011;6852;51.686;5.314;2023-01-08T04:54:43;6.73;;;0.83;;
13560;SDS011;6852;51.686;5.314;2023-01-08T04:57:10;1.73;;;0.60;;
13560;SDS011;6852;51.686;5.314;2023-01-08T04:59:36;4.07;;;0.83;;
13560;SDS011;6852;51.686;5.314;2023-01-08T05:02:03;1.27;;;0.80;;
13560;SDS011;6852;51.686;5.314;2023-01-08T05:04:30;2.10;;;0.80;;
13560;SDS011;6852;51.686;5.314;2023-01-08T05:06:57;3.13;;;0.90;;
13560;SDS011;6852;51.686;5.314;2023-01-08T05:09:24;3.03;;;1.10;;
13560;SDS011;6852;51.686;5.314;2023-01-08T05:11:51;4.43;;;1.00;;
13560;SDS011;6852;51.686;5.314;2023-01-08T05:14:17;3.80;;;0.80;;
13560;SDS011;6852;51.686;5.314;2023-01-08T05:16:44;3.17;;;0.63;;
13560;SDS011;6852;51.686;5.314;2023-01-08T05:19:11;2.83;;;1.00;;
13560;SDS011;6852;51.686;5.314;2023-01-08T05:21:39;1.30;;;0.80;;
13560;SDS011;6852;51.686;5.314;2023-01-08T05:24:05;2.03;;;0.80;;
13560;SDS011;6852;51.686;5.314;2023-01-08T05:26:34;3.60;;;0.97;;
13560;SDS011;6852;51.686;5.314;2023-01-08T05:29:01;2.27;;;0.60;;
13560;SDS011;6852;51.686;5.314;2023-01-08T05:31:28;1.67;;;0.67;;
13560;SDS011;6852;51.686;5.314;2023-01-08T05:33:56;1.10;;;0.60;;
13560;SDS011;6852;51.686;5.314;2023-01-08T05:36:23;1.33;;;0.80;;
13560;SDS011;6852;51.686;5.314;2023-01-08T05:38:50;1.23;;;0.70;;
13560;SDS011;6852;51.686;5.314;2023-01-08T05:41:17;2.07;;;0.70;;
13560;SDS011;6852;51.686;5.314;2023-01-08T05:43:44;3.33;;;0.60;;
13560;SDS011;6852;51.686;5.314;2023-01-08T05:46:10;1.40;;;0.47;;
13560;SDS011;6852;51.686;5.314;2023-01-08T05:48:37;3.07;;;0.80;;
13560;SDS011;6852;51.686;5.314;2023-01-08T05:51:04;1.67;;;0.67;;
13560;SDS011;6852;51.686;5.314;2023-01-08T05:53:31;2.63;;;0.83;;
13560;SDS011;6852;51.686;5.314;2023-01-08T05:55:59;4.40;;;0.67;;
13560;SDS011;6852;51.686;5.314;2023-01-08T05:58:26;3.97;;;0.70;;
13560;SDS011;6852;51.686;5.314;2023-01-08T06:00:54;3.20;;;0.90;;
13560;SDS011;6852;51.686;5.314;2023-01-08T06:03:27;1.97;;;0.80;;
13560;SDS011;6852;51.686;5.314;2023-01-08T06:06:00;2.60;;;0.70;;
13560;SDS011;6852;51.686;5.314;2023-01-08T06:08:28;2.33;;;0.73;;
13560;SDS011;6852;51.686;5.314;2023-01-08T06:11:03;1.37;;;0.43;;
13560;SDS011;6852;51.686;5.314;2023-01-08T06:13:32;4.97;;;1.63;;
13560;SDS011;6852;51.686;5.314;2023-01-08T06:15:59;2.90;;;0.80;;
13560;SDS011;6852;51.686;5.314;2023-01-08T06:18:27;2.10;;;0.67;;
13560;SDS011;6852;51.686;5.314;2023-01-08T06:20:55;2.70;;;0.80;;
13560;SDS011;6852;51.686;5.314;2023-01-08T06:23:21;4.00;;;1.63;;
13560;SDS011;6852;51.686;5.314;2023-01-08T06:25:52;2.67;;;0.60;;
13560;SDS011;6852;51.686;5.314;2023-01-08T06:28:23;1.57;;;0.53;;
13560;SDS011;6852;51.686;5.314;2023-01-08T06:30:50;1.77;;;0.50;;
13560;SDS011;6852;51.686;5.314;2023-01-08T06:33:17;1.93;;;0.57;;
13560;SDS011;6852;51.686;5.314;2023-01-08T06:35:46;3.23;;;0.70;;
13560;SDS011;6852;51.686;5.314;2023-01-08T06:38:13;3.27;;;0.80;;
13560;SDS011;6852;51.686;5.314;2023-01-08T06:40:40;5.57;;;0.90;;
13560;SDS011;6852;51.686;5.314;2023-01-08T06:43:07;6.73;;;0.73;;
13560;SDS011;6852;51.686;5.314;2023-01-08T06:45:34;1.93;;;0.73;;
13560;SDS011;6852;51.686;5.314;2023-01-08T06:48:02;3.20;;;0.87;;
13560;SDS011;6852;51.686;5.314;2023-01-08T06:50:31;5.97;;;0.90;;
13560;SDS011;6852;51.686;5.314;2023-01-08T06:52:59;3.67;;;0.90;;
13560;SDS011;6852;51.686;5.314;2023-01-08T06:55:26;5.63;;;1.07;;
13560;SDS011;6852;51.686;5.314;2023-01-08T06:57:53;7.67;;;0.60;;
13560;SDS011;6852;51.686;5.314;2023-01-08T07:00:21;4.33;;;1.13;;
13560;SDS011;6852;51.686;5.314;2023-01-08T07:02:49;3.83;;;0.90;;
13560;SDS011;6852;51.686;5.314;2023-01-08T07:05:16;3.10;;;0.67;;
13560;SDS011;6852;51.686;5.314;2023-01-08T07:07:43;5.63;;;0.73;;
13560;SDS011;6852;51.686;5.314;2023-01-08T07:10:10;7.77;;;1.57;;
13560;SDS011;6852;51.686;5.314;2023-01-08T07:12:37;4.37;;;0.60;;
13560;SDS011;6852;51.686;5.314;2023-01-08T07:15:04;4.20;;;1.17;;
13560;SDS011;6852;51.686;5.314;2023-01-08T07:17:32;5.00;;;1.50;;
13560;SDS011;6852;51.686;5.314;2023-01-08T07:19:58;3.87;;;0.60;;
13560;SDS011;6852;51.686;5.314;2023-01-08T07:22:26;4.80;;;0.90;;
13560;SDS011;6852;51.686;5.314;2023-01-08T07:24:53;5.07;;;0.77;;
13560;SDS011;6852;51.686;5.314;2023-01-08T07:27:20;3.47;;;0.90;;
13560;SDS011;6852;51.686;5.314;2023-01-08T07:29:47;4.80;;;0.70;;
13560;SDS011;6852;51.686;5.314;2023-01-08T07:32:13;5.03;;;1.20;;
13560;SDS011;6852;51.686;5.314;2023-01-08T07:34:40;3.57;;;0.90;;
13560;SDS011;6852;51.686;5.314;2023-01-08T07:37:07;6.67;;;1.30;;
13560;SDS011;6852;51.686;5.314;2023-01-08T07:39:34;4.33;;;0.90;;
13560;SDS011;6852;51.686;5.314;2023-01-08T07:42:00;3.07;;;1.40;;
13560;SDS011;6852;51.686;5.314;2023-01-08T07:44:27;3.43;;;0.93;;
13560;SDS011;6852;51.686;5.314;2023-01-08T07:46:54;5.73;;;1.10;;
13560;SDS011;6852;51.686;5.314;2023-01-08T07:49:21;3.60;;;1.10;;
13560;SDS011;6852;51.686;5.314;2023-01-08T07:51:48;2.27;;;0.80;;
13560;SDS011;6852;51.686;5.314;2023-01-08T07:54:15;7.10;;;1.43;;
13560;SDS011;6852;51.686;5.314;2023-01-08T07:56:41;3.87;;;1.37;;
13560;SDS011;6852;51.686;5.314;2023-01-08T07:59:08;6.90;;;1.10;;
13560;SDS011;6852;51.686;5.314;2023-01-08T08:01:35;3.70;;;1.20;;
13560;SDS011;6852;51.686;5.314;2023-01-08T08:04:02;4.80;;;1.20;;
13560;SDS011;6852;51.686;5.314;2023-01-08T08:06:29;4.93;;;1.40;;
13560;SDS011;6852;51.686;5.314;2023-01-08T08:08:56;6.20;;;1.30;;
13560;SDS011;6852;51.686;5.314;2023-01-08T08:11:25;3.47;;;0.90;;
13560;SDS011;6852;51.686;5.314;2023-01-08T08:13:51;4.50;;;1.10;;
13560;SDS011;6852;51.686;5.314;2023-01-08T08:16:21;2.30;;;0.90;;
13560;SDS011;6852;51.686;5.314;2023-01-08T08:18:48;6.20;;;1.27;;
13560;SDS011;6852;51.686;5.314;2023-01-08T08:21:15;7.27;;;1.07;;
13560;SDS011;6852;51.686;5.314;2023-01-08T08:23:42;5.57;;;1.17;;
13560;SDS011;6852;51.686;5.314;2023-01-08T08:26:09;8.43;;;1.00;;
13560;SDS011;6852;51.686;5.314;2023-01-08T08:28:36;3.60;;;1.23;;
13560;SDS011;6852;51.686;5.314;2023-01-08T08:31:02;4.90;;;1.00;;
13560;SDS011;6852;51.686;5.314;2023-01-08T08:33:29;6.87;;;1.30;;
13560;SDS011;6852;51.686;5.314;2023-01-08T08:35:56;7.80;;;0.97;;
13560;SDS011;6852;51.686;5.314;2023-01-08T08:38:23;7.97;;;1.20;;
13560;SDS011;6852;51.686;5.314;2023-01-08T08:40:51;4.47;;;0.90;;
13560;SDS011;6852;51.686;5.314;2023-01-08T08:43:18;4.23;;;1.10;;
13560;SDS011;6852;51.686;5.314;2023-01-08T08:45:45;3.60;;;0.80;;
13560;SDS011;6852;51.686;5.314;2023-01-08T08:48:12;7.57;;;1.03;;
13560;SDS011;6852;51.686;5.314;2023-01-08T08:50:39;3.80;;;1.17;;
13560;SDS011;6852;51.686;5.314;2023-01-08T08:53:05;4.73;;;1.17;;
13560;SDS011;6852;51.686;5.314;2023-01-08T08:55:32;5.50;;;1.07;;
13560;SDS011;6852;51.686;5.314;2023-01-08T08:58:07;2.93;;;1.10;;
13560;SDS011;6852;51.686;5.314;2023-01-08T09:00:37;5.60;;;1.20;;
13560;SDS011;6852;51.686;5.314;2023-01-08T09:03:05;4.40;;;1.00;;
13560;SDS011;6852;51.686;5.314;2023-01-08T09:05:35;8.37;;;1.30;;
13560;SDS011;6852;51.686;5.314;2023-01-08T09:08:02;3.90;;;0.87;;
13560;SDS011;6852;51.686;5.314;2023-01-08T09:10:29;5.43;;;0.97;;
13560;SDS011;6852;51.686;5.314;2023-01-08T09:12:56;6.50;;;1.40;;
13560;SDS011;6852;51.686;5.314;2023-01-08T09:15:22;4.57;;;1.20;;
13560;SDS011;6852;51.686;5.314;2023-01-08T09:17:56;3.30;;;1.50;;
13560;SDS011;6852;51.686;5.314;2023-01-08T09:20:23;4.70;;;0.90;;
13560;SDS011;6852;51.686;5.314;2023-01-08T09:22:51;4.83;;;1.30;;
13560;SDS011;6852;51.686;5.314;2023-01-08T09:25:18;8.00;;;1.10;;
13560;SDS011;6852;51.686;5.314;2023-01-08T09:27:46;5.67;;;1.10;;
13560;SDS011;6852;51.686;5.314;2023-01-08T09:30:13;5.77;;;1.50;;
13560;SDS011;6852;51.686;5.314;2023-01-08T09:32:40;2.97;;;0.93;;
13560;SDS011;6852;51.686;5.314;2023-01-08T09:35:07;4.70;;;1.20;;
13560;SDS011;6852;51.686;5.314;2023-01-08T09:37:34;6.53;;;1.40;;
13560;SDS011;6852;51.686;5.314;2023-01-08T09:40:01;3.50;;;1.10;;
13560;SDS011;6852;51.686;5.314;2023-01-08T09:42:28;4.50;;;1.27;;
13560;SDS011;6852;51.686;5.314;2023-01-08T09:44:56;5.10;;;1.23;;
13560;SDS011;6852;51.686;5.314;2023-01-08T09:47:26;3.47;;;0.90;;
13560;SDS011;6852;51.686;5.314;2023-01-08T09:50:02;4.20;;;1.23;;
13560;SDS011;6852;51.686;5.314;2023-01-08T09:52:32;5.30;;;1.27;;
13560;SDS011;6852;51.686;5.314;2023-01-08T09:54:59;7.20;;;1.80;;
13560;SDS011;6852;51.686;5.314;2023-01-08T09:57:27;5.20;;;0.97;;
13560;SDS011;6852;51.686;5.314;2023-01-08T09:59:54;5.23;;;1.40;;
13560;SDS011;6852;51.686;5.314;2023-01-08T10:02:23;1.80;;;1.30;;
13560;SDS011;6852;51.686;5.314;2023-01-08T10:04:57;4.30;;;1.30;;
13560;SDS011;6852;51.686;5.314;2023-01-08T10:07:26;5.27;;;1.57;;
13560;SDS011;6852;51.686;5.314;2023-01-08T10:09:56;5.37;;;1.40;;
13560;SDS011;6852;51.686;5.314;2023-01-08T10:12:24;6.30;;;1.50;;
13560;SDS011;6852;51.686;5.314;2023-01-08T10:14:59;7.13;;;1.73;;
13560;SDS011;6852;51.686;5.314;2023-01-08T10:17:41;2.57;;;1.20;;
13560;SDS011;6852;51.686;5.314;2023-01-08T10:20:15;5.90;;;1.80;;
13560;SDS011;6852;51.686;5.314;2023-01-08T10:22:44;3.67;;;1.40;;
13560;SDS011;6852;51.686;5.314;2023-01-08T10:25:17;2.90;;;1.40;;
13560;SDS011;6852;51.686;5.314;2023-01-08T10:33:04;4.30;;;1.30;;
13560;SDS011;6852;51.686;5.314;2023-01-08T10:35:36;3.07;;;1.63;;
13560;SDS011;6852;51.686;5.314;2023-01-08T10:38:05;5.67;;;1.47;;
13560;SDS011;6852;51.686;5.314;2023-01-08T10:40:37;3.93;;;1.47;;
13560;SDS011;6852;51.686;5.314;2023-01-08T10:43:10;4.03;;;1.10;;
13560;SDS011;6852;51.686;5.314;2023-01-08T10:45:58;5.67;;;1.60;;
13560;SDS011;6852;51.686;5.314;2023-01-08T10:48:38;3.23;;;1.03;;
13560;SDS011;6852;51.686;5.314;2023-01-08T10:51:15;5.27;;;1.00;;
13560;SDS011;6852;51.686;5.314;2023-01-08T10:53:45;5.50;;;1.03;;
13560;SDS011;6852;51.686;5.314;2023-01-08T10:56:16;2.97;;;0.80;;
13560;SDS011;6852;51.686;5.314;2023-01-08T10:58:51;7.13;;;1.87;;
13560;SDS011;6852;51.686;5.314;2023-01-08T11:03:52;5.63;;;1.17;;
13560;SDS011;6852;51.686;5.314;2023-01-08T11:06:22;3.00;;;0.80;;
13560;SDS011;6852;51.686;5.314;2023-01-08T11:09:12;3.93;;;1.00;;
13560;SDS011;6852;51.686;5.314;2023-01-08T11:11:50;1.20;;;0.70;;
13560;SDS011;6852;51.686;5.314;2023-01-08T11:14:21;2.03;;;0.80;;
13560;SDS011;6852;51.686;5.314;2023-01-08T11:16:55;3.63;;;0.80;;
13560;SDS011;6852;51.686;5.314;2023-01-08T11:19:25;2.13;;;0.60;;
13560;SDS011;6852;51.686;5.314;2023-01-08T11:24:32;3.50;;;0.93;;
13560;SDS011;6852;51.686;5.314;2023-01-08T11:33:05;2.60;;;0.50;;
13560;SDS011;6852;51.686;5.314;2023-01-08T11:35:45;0.60;;;0.50;;
13560;SDS011;6852;51.686;5.314;2023-01-08T11:38:15;1.23;;;0.40;;
13560;SDS011;6852;51.686;5.314;2023-01-08T11:40:48;0.83;;;0.50;;
13560;SDS011;6852;51.686;5.314;2023-01-08T11:54:43;4.53;;;0.70;;
13560;SDS011;6852;51.686;5.314;2023-01-08T12:02:53;0.77;;;0.50;;
13560;SDS011;6852;51.686;5.314;2023-01-08T12:13:54;1.07;;;0.40;;
13560;SDS011;6852;51.686;5.314;2023-01-08T12:17:03;2.40;;;0.77;;
13560;SDS011;6852;51.686;5.314;2023-01-08T12:22:43;1.30;;;0.50;;
13560;SDS011;6852;51.686;5.314;2023-01-08T12:25:36;1.27;;;0.70;;
13560;SDS011;6852;51.686;5.314;2023-01-08T12:33:47;1.13;;;0.60;;
13560;SDS011;6852;51.686;5.314;2023-01-08T12:36:53;0.90;;;0.50;;
13560;SDS011;6852;51.686;5.314;2023-01-08T12:39:21;3.23;;;0.60;;
13560;SDS011;6852;51.686;5.314;2023-01-08T12:41:53;0.60;;;0.40;;
13560;SDS011;6852;51.686;5.314;2023-01-08T12:44:28;2.77;;;0.73;;
13560;SDS011;6852;51.686;5.314;2023-01-08T12:46:57;0.83;;;0.53;;
13560;SDS011;6852;51.686;5.314;2023-01-08T12:49:29;1.03;;;0.50;;
13560;SDS011;6852;51.686;5.314;2023-01-08T12:52:34;1.63;;;0.60;;
13560;SDS011;6852;51.686;5.314;2023-01-08T12:55:20;3.07;;;1.40;;
13560;SDS011;6852;51.686;5.314;2023-01-08T12:58:04;1.30;;;0.63;;
13560;SDS011;6852;51.686;5.314;2023-01-08T13:00:59;1.63;;;0.80;;
13560;SDS011;6852;51.686;5.314;2023-01-08T13:03:41;3.83;;;0.77;;
13560;SDS011;6852;51.686;5.314;2023-01-08T13:06:14;3.07;;;0.77;;
13560;SDS011;6852;51.686;5.314;2023-01-08T13:08:45;3.27;;;0.80;;
13560;SDS011;6852;51.686;5.314;2023-01-08T13:11:25;2.00;;;0.90;;
13560;SDS011;6852;51.686;5.314;2023-01-08T13:14:04;2.37;;;0.60;;
13560;SDS011;6852;51.686;5.314;2023-01-08T13:16:39;4.20;;;0.67;;
13560;SDS011;6852;51.686;5.314;2023-01-08T13:19:25;1.23;;;0.70;;
13560;SDS011;6852;51.686;5.314;2023-01-08T13:21:55;1.57;;;0.70;;
13560;SDS011;6852;51.686;5.314;2023-01-08T13:29:45;3.47;;;0.80;;
13560;SDS011;6852;51.686;5.314;2023-01-08T13:37:43;1.90;;;1.20;;
13560;SDS011;6852;51.686;5.314;2023-01-08T13:43:03;2.23;;;0.80;;
13560;SDS011;6852;51.686;5.314;2023-01-08T13:45:37;2.57;;;0.77;;
13560;SDS011;6852;51.686;5.314;2023-01-08T13:48:04;2.47;;;0.90;;
13560;SDS011;6852;51.686;5.314;2023-01-08T13:50:31;3.37;;;0.70;;
13560;SDS011;6852;51.686;5.314;2023-01-08T13:53:01;1.83;;;0.93;;
13560;SDS011;6852;51.686;5.314;2023-01-08T13:55:38;4.40;;;0.93;;
13560;SDS011;6852;51.686;5.314;2023-01-08T13:58:11;5.43;;;1.00;;
13560;SDS011;6852;51.686;5.314;2023-01-08T14:05:48;5.63;;;1.00;;
13560;SDS011;6852;51.686;5.314;2023-01-08T14:08:23;3.17;;;0.87;;
13560;SDS011;6852;51.686;5.314;2023-01-08T14:10:51;3.23;;;0.80;;
13560;SDS011;6852;51.686;5.314;2023-01-08T14:13:21;2.77;;;0.87;;
13560;SDS011;6852;51.686;5.314;2023-01-08T14:15:54;2.83;;;0.90;;
13560;SDS011;6852;51.686;5.314;2023-01-08T14:18:26;3.20;;;0.60;;
13560;SDS011;6852;51.686;5.314;2023-01-08T14:20:53;3.13;;;1.00;;
13560;SDS011;6852;51.686;5.314;2023-01-08T14:23:25;1.63;;;0.60;;
13560;SDS011;6852;51.686;5.314;2023-01-08T14:25:53;2.60;;;0.90;;
13560;SDS011;6852;51.686;5.314;2023-01-08T14:28:28;4.60;;;0.60;;
13560;SDS011;6852;51.686;5.314;2023-01-08T14:30:55;4.50;;;0.80;;
13560;SDS011;6852;51.686;5.314;2023-01-08T14:33:23;2.43;;;1.03;;
13560;SDS011;6852;51.686;5.314;2023-01-08T14:35:55;3.00;;;0.70;;
13560;SDS011;6852;51.686;5.314;2023-01-08T14:38:24;5.13;;;0.73;;
13560;SDS011;6852;51.686;5.314;2023-01-08T14:41:04;6.20;;;0.97;;
13560;SDS011;6852;51.686;5.314;2023-01-08T14:43:39;4.47;;;0.90;;
13560;SDS011;6852;51.686;5.314;2023-01-08T14:46:21;7.40;;;1.00;;
13560;SDS011;6852;51.686;5.314;2023-01-08T14:48:51;4.43;;;0.90;;
13560;SDS011;6852;51.686;5.314;2023-01-08T14:51:29;2.27;;;0.90;;
13560;SDS011;6852;51.686;5.314;2023-01-08T14:54:01;2.53;;;0.87;;
13560;SDS011;6852;51.686;5.314;2023-01-08T14:56:32;2.20;;;0.60;;
13560;SDS011;6852;51.686;5.314;2023-01-08T14:59:05;2.83;;;0.70;;
13560;SDS011;6852;51.686;5.314;2023-01-08T15:01:34;1.37;;;0.60;;
13560;SDS011;6852;51.686;5.314;2023-01-08T15:04:18;2.43;;;0.83;;
13560;SDS011;6852;51.686;5.314;2023-01-08T15:06:46;3.70;;;1.00;;
13560;SDS011;6852;51.686;5.314;2023-01-08T15:11:52;3.37;;;1.17;;
13560;SDS011;6852;51.686;5.314;2023-01-08T15:14:24;2.70;;;0.80;;
13560;SDS011;6852;51.686;5.314;2023-01-08T15:16:53;3.97;;;0.83;;
13560;SDS011;6852;51.686;5.314;2023-01-08T15:19:24;1.87;;;0.50;;
13560;SDS011;6852;51.686;5.314;2023-01-08T15:21:53;1.53;;;1.00;;
13560;SDS011;6852;51.686;5.314;2023-01-08T15:26:57;2.13;;;0.90;;
13560;SDS011;6852;51.686;5.314;2023-01-08T15:29:27;3.20;;;1.20;;
13560;SDS011;6852;51.686;5.314;2023-01-08T15:32:08;4.23;;;0.87;;
13560;SDS011;6852;51.686;5.314;2023-01-08T15:34:37;1.10;;;0.80;;
13560;SDS011;6852;51.686;5.314;2023-01-08T15:37:04;2.80;;;0.63;;
13560;SDS011;6852;51.686;5.314;2023-01-08T15:39:31;6.00;;;0.97;;
13560;SDS011;6852;51.686;5.314;2023-01-08T15:42:10;8.57;;;1.10;;
13560;SDS011;6852;51.686;5.314;2023-01-08T15:45:00;6.40;;;1.00;;
13560;SDS011;6852;51.686;5.314;2023-01-08T15:47:27;4.87;;;1.07;;
13560;SDS011;6852;51.686;5.314;2023-01-08T15:49:54;3.83;;;0.80;;
13560;SDS011;6852;51.686;5.314;2023-01-08T15:52:21;2.63;;;0.97;;
13560;SDS011;6852;51.686;5.314;2023-01-08T15:54:57;4.70;;;1.13;;
13560;SDS011;6852;51.686;5.314;2023-01-08T15:57:26;3.20;;;0.90;;
13560;SDS011;6852;51.686;5.314;2023-01-08T15:59:55;2.73;;;0.87;;
13560;SDS011;6852;51.686;5.314;2023-01-08T16:02:22;4.17;;;0.90;;
13560;SDS011;6852;51.686;5.314;2023-01-08T16:04:51;8.07;;;1.10;;
13560;SDS011;6852;51.686;5.314;2023-01-08T16:07:18;4.47;;;1.00;;
13560;SDS011;6852;51.686;5.314;2023-01-08T16:09:45;2.70;;;1.07;;
13560;SDS011;6852;51.686;5.314;2023-01-08T16:12:12;5.33;;;1.23;;
13560;SDS011;6852;51.686;5.314;2023-01-08T16:14:39;4.83;;;1.40;;
13560;SDS011;6852;51.686;5.314;2023-01-08T16:17:06;2.20;;;0.90;;
13560;SDS011;6852;51.686;5.314;2023-01-08T16:19:34;3.63;;;1.20;;
13560;SDS011;6852;51.686;5.314;2023-01-08T16:22:00;4.00;;;1.00;;
13560;SDS011;6852;51.686;5.314;2023-01-08T16:24:27;2.43;;;0.90;;
13560;SDS011;6852;51.686;5.314;2023-01-08T16:26:54;4.03;;;1.00;;
13560;SDS011;6852;51.686;5.314;2023-01-08T16:29:21;1.80;;;0.77;;
13560;SDS011;6852;51.686;5.314;2023-01-08T16:31:48;4.07;;;1.13;;
13560;SDS011;6852;51.686;5.314;2023-01-08T16:34:14;3.83;;;0.83;;
13560;SDS011;6852;51.686;5.314;2023-01-08T16:36:41;4.07;;;1.10;;
13560;SDS011;6852;51.686;5.314;2023-01-08T16:39:09;2.33;;;0.80;;
13560;SDS011;6852;51.686;5.314;2023-01-08T16:41:36;5.07;;;1.03;;
13560;SDS011;6852;51.686;5.314;2023-01-08T16:44:03;3.23;;;1.00;;
13560;SDS011;6852;51.686;5.314;2023-01-08T16:46:30;5.40;;;1.30;;
13560;SDS011;6852;51.686;5.314;2023-01-08T16:48:57;3.90;;;1.00;;
13560;SDS011;6852;51.686;5.314;2023-01-08T16:51:24;3.37;;;0.83;;
13560;SDS011;6852;51.686;5.314;2023-01-08T16:53:52;5.43;;;1.20;;
13560;SDS011;6852;51.686;5.314;2023-01-08T16:56:19;3.00;;;0.80;;
13560;SDS011;6852;51.686;5.314;2023-01-08T16:58:48;6.57;;;1.13;;
13560;SDS011;6852;51.686;5.314;2023-01-08T17:01:16;6.17;;;1.43;;